Time;durP1;ratioP1;P1;durP2;ratioP2;P2;SDS_P1;SDS_P2;PMS_P1;PMS_P2;Temp;Humidity;BMP_temperature;BMP_pressure;BME280_temperature;BME280_humidity;BME280_pressure;Samples;Min_cycle;Max_cycle;Signal;HPM_P1;HPM_P2
2022/07/26 00:00:16;;;;;;;4.00;1.60;;;17.40;78.50;;;;;;4956895;28;20166;-67
2022/07/26 00:02:42;;;;;;;5.83;1.63;;;17.30;78.50;;;;;;4986171;28;20066;-66
2022/07/26 00:05:08;;;;;;;4.67;1.50;;;17.40;78.60;;;;;;4972041;28;20288;-67
2022/07/26 00:07:34;;;;;;;3.33;1.60;;;17.30;78.50;;;;;;4986498;28;20038;-66
2022/07/26 00:09:59;;;;;;;5.00;1.77;;;17.30;78.50;;;;;;4973217;28;20084;-66
2022/07/26 00:12:25;;;;;;;4.50;1.63;;;17.40;78.50;;;;;;4969985;28;20043;-66
2022/07/26 00:14:51;;;;;;;4.33;2.23;;;17.30;78.70;;;;;;4989149;28;20042;-66
2022/07/26 00:17:17;;;;;;;5.17;1.73;;;17.40;78.80;;;;;;4974993;28;20041;-66
2022/07/26 00:19:43;;;;;;;4.17;1.93;;;17.40;78.70;;;;;;4969102;28;20035;-66
2022/07/26 00:24:53;;;;;;;6.03;1.93;;;17.40;78.80;;;;;;4972852;28;20286;-66
2022/07/26 00:27:19;;;;;;;3.70;1.73;;;17.40;78.80;;;;;;4968875;28;20289;-66
2022/07/26 00:29:44;;;;;;;6.17;2.00;;;17.40;78.90;;;;;;4971992;28;20145;-67
2022/07/26 00:32:10;;;;;;;4.33;2.23;;;17.40;78.90;;;;;;4972838;28;20042;-67
2022/07/26 00:34:36;;;;;;;4.30;1.80;;;17.50;79.00;;;;;;4956404;28;20454;-67
2022/07/26 00:37:02;;;;;;;4.83;2.57;;;17.50;79.00;;;;;;4968658;28;20047;-66
2022/07/26 00:39:28;;;;;;;4.47;1.87;;;17.50;79.40;;;;;;4972850;28;20046;-66
2022/07/26 00:41:53;;;;;;;4.80;2.17;;;17.50;79.30;;;;;;4988756;28;20979;-67
2022/07/26 00:44:19;;;;;;;5.23;2.27;;;17.50;79.30;;;;;;4972112;28;20510;-67
2022/07/26 00:46:45;;;;;;;3.47;1.87;;;17.50;79.30;;;;;;4972604;28;20534;-66
2022/07/26 00:49:11;;;;;;;4.57;2.00;;;17.60;79.40;;;;;;4973265;28;20042;-67
2022/07/26 00:51:37;;;;;;;4.83;1.90;;;17.60;79.90;;;;;;4972085;28;20490;-67
2022/07/26 00:54:04;;;;;;;4.70;2.33;;;17.60;80.00;;;;;;4949741;28;20703;-66
2022/07/26 00:56:32;;;;;;;5.10;1.83;;;17.60;80.00;;;;;;4971965;28;20420;-67
2022/07/26 00:58:59;;;;;;;6.13;1.90;;;17.60;80.10;;;;;;4972625;28;20308;-67
2022/07/26 01:01:25;;;;;;;3.93;2.10;;;17.60;80.30;;;;;;4969339;28;20277;-66
2022/07/26 01:03:52;;;;;;;5.77;1.97;;;17.60;80.20;;;;;;4969472;28;20646;-67
2022/07/26 01:06:19;;;;;;;3.97;1.73;;;17.60;80.20;;;;;;4970335;28;20220;-67
2022/07/26 01:08:45;;;;;;;3.77;2.00;;;17.60;80.20;;;;;;4955354;28;20369;-67
2022/07/26 01:11:11;;;;;;;6.70;1.90;;;17.60;80.60;;;;;;4966480;28;20412;-66
2022/07/26 01:13:44;;;;;;;5.43;2.10;;;17.60;80.60;;;;;;4971862;28;20074;-66
2022/07/26 01:16:09;;;;;;;3.33;1.77;;;17.60;80.80;;;;;;4966873;28;20046;-67
2022/07/26 01:18:35;;;;;;;5.30;1.97;;;17.50;81.10;;;;;;4971531;28;20301;-66
2022/07/26 01:21:02;;;;;;;3.27;1.67;;;17.60;81.00;;;;;;4958530;28;20038;-67
2022/07/26 01:23:30;;;;;;;5.73;1.80;;;17.60;81.00;;;;;;4972004;28;20494;-66
2022/07/26 01:25:55;;;;;;;4.70;2.13;;;17.60;81.10;;;;;;4966459;28;20286;-66
2022/07/26 01:28:21;;;;;;;6.17;1.77;;;17.60;81.40;;;;;;4965068;28;20300;-66
2022/07/26 01:30:48;;;;;;;5.20;1.80;;;17.70;81.10;;;;;;4966429;28;20051;-66
2022/07/26 01:33:15;;;;;;;5.10;1.87;;;17.70;81.10;;;;;;4964462;28;20553;-67
2022/07/26 01:35:40;;;;;;;5.10;1.87;;;17.70;81.70;;;;;;4966915;28;20788;-67
2022/07/26 01:38:06;;;;;;;5.57;1.70;;;17.70;81.20;;;;;;4965028;28;20302;-66
2022/07/26 01:40:32;;;;;;;4.00;1.70;;;17.70;81.50;;;;;;4966575;28;20150;-66
2022/07/26 01:42:57;;;;;;;5.30;1.50;;;17.70;81.50;;;;;;4966133;28;20399;-66
2022/07/26 01:45:23;;;;;;;5.60;1.40;;;17.70;81.30;;;;;;4961146;28;20065;-66
2022/07/26 01:47:49;;;;;;;4.43;1.77;;;17.70;81.40;;;;;;4962070;28;20047;-67
2022/07/26 01:50:16;;;;;;;4.93;1.40;;;17.70;81.60;;;;;;4968757;28;20161;-66
2022/07/26 01:52:41;;;;;;;5.97;1.60;;;17.70;81.60;;;;;;4962209;28;20114;-66
2022/07/26 01:55:08;;;;;;;5.00;1.43;;;17.70;81.60;;;;;;4962359;28;20294;-67
2022/07/26 01:57:34;;;;;;;8.80;2.07;;;17.70;81.80;;;;;;4948745;28;20097;-67
2022/07/26 01:59:59;;;;;;;5.93;2.47;;;17.80;81.70;;;;;;4960838;28;20818;-67
2022/07/26 02:02:26;;;;;;;6.93;2.00;;;17.70;83.00;;;;;;4962277;28;20043;-67
2022/07/26 02:04:57;;;;;;;8.10;2.80;;;17.60;84.10;;;;;;4948217;28;20701;-67
2022/07/26 02:07:24;;;;;;;6.50;1.80;;;17.50;84.40;;;;;;4963264;28;20306;-68
2022/07/26 02:09:49;;;;;;;7.97;1.80;;;17.40;84.20;;;;;;4975062;28;20301;-68
2022/07/26 02:12:15;;;;;;;7.63;1.90;;;17.30;84.40;;;;;;4973396;28;20628;-68
2022/07/26 02:14:41;;;;;;;6.27;1.93;;;17.20;84.60;;;;;;4965321;28;20053;-68
2022/07/26 02:17:07;;;;;;;6.87;1.90;;;17.20;84.90;;;;;;4949195;28;20046;-68
2022/07/26 02:19:32;;;;;;;4.90;1.60;;;17.10;85.20;;;;;;4967941;28;20117;-67
2022/07/26 02:21:58;;;;;;;5.63;1.63;;;17.10;85.70;;;;;;4948355;28;20041;-67
2022/07/26 02:24:27;;;;;;;5.87;1.90;;;17.10;85.70;;;;;;4963358;28;20053;-67
2022/07/26 02:26:54;;;;;;;6.23;1.73;;;17.00;85.80;;;;;;4967486;28;20041;-68
2022/07/26 02:29:19;;;;;;;7.53;1.73;;;17.00;86.20;;;;;;4962456;28;20321;-68
2022/07/26 02:31:45;;;;;;;5.50;1.57;;;17.00;86.20;;;;;;4967253;28;20282;-68
2022/07/26 02:34:11;;;;;;;5.90;1.20;;;16.90;86.70;;;;;;4966878;28;20558;-68
2022/07/26 02:36:36;;;;;;;6.67;1.40;;;16.90;86.40;;;;;;4967121;28;20166;-68
2022/07/26 02:39:03;;;;;;;6.30;1.10;;;16.90;86.30;;;;;;4982935;28;20086;-68
2022/07/26 02:41:29;;;;;;;8.63;1.07;;;16.90;86.20;;;;;;4948658;28;20062;-68
2022/07/26 02:43:55;;;;;;;6.13;1.50;;;16.80;86.10;;;;;;4966850;28;20282;-68
2022/07/26 02:46:20;;;;;;;8.10;0.93;;;16.80;86.40;;;;;;4966872;28;20038;-67
2022/07/26 02:48:46;;;;;;;4.50;0.93;;;16.80;86.20;;;;;;4966582;28;20530;-67
2022/07/26 02:51:12;;;;;;;5.63;1.27;;;16.70;86.10;;;;;;4967040;28;20193;-67
2022/07/26 02:53:37;;;;;;;8.50;1.27;;;16.70;85.80;;;;;;4966775;28;20455;-67
2022/07/26 02:56:03;;;;;;;6.40;1.33;;;16.60;86.00;;;;;;4962136;28;20546;-67
2022/07/26 02:58:29;;;;;;;4.00;0.97;;;16.50;86.00;;;;;;4959929;28;20527;-67
2022/07/26 03:00:55;;;;;;;3.30;0.67;;;16.50;85.80;;;;;;4965429;28;20298;-67
2022/07/26 03:03:21;;;;;;;2.83;0.53;;;16.50;86.00;;;;;;4947812;28;20133;-67
2022/07/26 03:05:46;;;;;;;6.03;0.80;;;16.40;86.00;;;;;;4966490;28;20078;-67
2022/07/26 03:08:12;;;;;;;6.53;0.73;;;16.40;86.00;;;;;;4966871;28;20133;-67
2022/07/26 03:10:38;;;;;;;10.97;1.70;;;16.40;85.80;;;;;;4964504;28;20070;-67
2022/07/26 03:13:03;;;;;;;4.93;0.97;;;16.30;85.60;;;;;;4966667;28;20477;-67
2022/07/26 03:15:29;;;;;;;4.97;1.23;;;16.30;85.60;;;;;;4951096;28;20054;-67
2022/07/26 03:17:55;;;;;;;4.50;0.77;;;16.20;85.40;;;;;;4950516;28;20059;-67
2022/07/26 03:20:21;;;;;;;6.90;0.87;;;16.20;85.60;;;;;;4966607;28;20508;-67
2022/07/26 03:22:47;;;;;;;4.47;0.70;;;16.10;85.40;;;;;;4965540;28;20074;-67
2022/07/26 03:25:13;;;;;;;3.83;0.50;;;16.10;85.30;;;;;;4951041;28;20834;-67
2022/07/26 03:27:39;;;;;;;5.07;0.40;;;16.10;85.20;;;;;;4978057;28;20054;-67
2022/07/26 03:30:05;;;;;;;4.10;0.53;;;16.10;85.20;;;;;;4950580;28;20290;-67
2022/07/26 03:32:31;;;;;;;5.37;0.83;;;16.10;85.00;;;;;;4952253;28;20050;-67
2022/07/26 03:34:57;;;;;;;5.43;0.47;;;16.10;85.00;;;;;;4933470;29;20292;-67
2022/07/26 03:37:23;;;;;;;6.23;0.87;;;16.10;85.10;;;;;;4936550;29;20074;-67
2022/07/26 03:39:48;;;;;;;2.90;0.50;;;16.10;85.00;;;;;;4940698;29;20449;-67
2022/07/26 03:42:15;;;;;;;5.67;0.57;;;16.10;84.80;;;;;;4923914;29;20301;-67
2022/07/26 03:44:41;;;;;;;4.00;0.40;;;16.10;84.90;;;;;;4942512;28;20047;-67
2022/07/26 03:47:06;;;;;;;3.87;0.50;;;16.00;84.80;;;;;;4924797;29;20798;-67
2022/07/26 03:49:32;;;;;;;3.00;0.50;;;16.00;84.60;;;;;;4943325;28;20338;-67
2022/07/26 03:51:58;;;;;;;4.03;0.50;;;16.00;84.60;;;;;;4947450;29;20053;-67
2022/07/26 03:54:24;;;;;;;6.13;0.63;;;16.00;84.20;;;;;;4946129;28;20290;-67
2022/07/26 03:56:50;;;;;;;6.63;0.97;;;16.00;84.10;;;;;;4943536;28;20043;-67
2022/07/26 03:59:17;;;;;;;5.30;0.80;;;16.00;83.80;;;;;;4950869;28;20130;-67
2022/07/26 04:01:44;;;;;;;5.70;0.50;;;16.00;83.90;;;;;;4939814;28;20409;-67
2022/07/26 04:04:12;;;;;;;4.70;0.57;;;16.00;83.70;;;;;;4949715;28;20354;-67
2022/07/26 04:06:39;;;;;;;4.60;0.60;;;16.00;83.80;;;;;;4945774;28;20691;-67
2022/07/26 04:09:05;;;;;;;2.83;0.60;;;16.00;83.60;;;;;;4946634;28;20830;-67
2022/07/26 04:11:31;;;;;;;8.93;1.40;;;16.00;83.60;;;;;;4946893;28;20354;-67
2022/07/26 04:13:58;;;;;;;4.50;0.40;;;16.00;83.60;;;;;;4927710;29;20294;-67
2022/07/26 04:16:23;;;;;;;6.50;0.47;;;16.00;83.70;;;;;;4962061;28;20283;-67
2022/07/26 04:18:49;;;;;;;5.60;0.70;;;16.00;83.30;;;;;;4924128;29;20358;-67
2022/07/26 04:21:15;;;;;;;5.83;0.53;;;16.00;83.20;;;;;;4941043;28;20421;-67
2022/07/26 04:23:41;;;;;;;4.40;0.50;;;16.00;83.20;;;;;;4931079;29;20447;-67
2022/07/26 04:26:07;;;;;;;4.80;0.50;;;16.00;83.10;;;;;;4946575;28;20039;-67
2022/07/26 04:28:32;;;;;;;4.80;0.50;;;16.00;82.90;;;;;;4951713;28;20518;-67
2022/07/26 04:30:59;;;;;;;5.63;0.50;;;16.00;82.90;;;;;;4964995;28;20072;-67
2022/07/26 04:33:26;;;;;;;3.80;0.40;;;16.00;83.00;;;;;;4943306;28;20483;-67
2022/07/26 04:35:52;;;;;;;8.70;1.17;;;16.00;83.10;;;;;;4965374;28;20297;-67
2022/07/26 04:38:18;;;;;;;3.73;0.70;;;16.00;83.20;;;;;;4949149;28;20306;-67
2022/07/26 04:40:44;;;;;;;3.67;0.47;;;16.00;83.30;;;;;;4945854;28;20715;-67
2022/07/26 04:43:10;;;;;;;5.63;0.57;;;16.00;83.30;;;;;;4972529;28;20290;-67
2022/07/26 04:45:36;;;;;;;5.27;0.70;;;15.90;83.60;;;;;;4976065;28;20031;-67
2022/07/26 04:48:02;;;;;;;2.30;0.30;;;15.90;83.90;;;;;;4967766;28;20077;-67
2022/07/26 04:50:27;;;;;;;8.33;0.67;;;15.90;83.80;;;;;;4970028;28;20042;-67
2022/07/26 04:52:54;;;;;;;2.40;0.40;;;15.90;83.90;;;;;;4968827;28;20109;-67
2022/07/26 04:55:20;;;;;;;6.53;0.63;;;15.90;84.00;;;;;;4965297;28;20057;-67
2022/07/26 04:57:46;;;;;;;4.90;0.50;;;15.90;84.10;;;;;;4964275;28;20294;-67
2022/07/26 05:00:15;;;;;;;6.13;0.60;;;15.90;84.10;;;;;;4960354;28;20047;-67
2022/07/26 05:02:41;;;;;;;3.93;0.40;;;15.90;84.10;;;;;;4961357;28;20281;-67
2022/07/26 05:05:07;;;;;;;7.07;0.50;;;16.00;83.90;;;;;;4965268;28;20802;-67
2022/07/26 05:07:44;;;;;;;5.00;0.60;;;16.00;84.00;;;;;;4965094;28;20046;-67
2022/07/26 05:10:11;;;;;;;4.23;0.50;;;16.00;84.10;;;;;;4965248;28;20396;-67
2022/07/26 05:12:37;;;;;;;5.80;0.87;;;16.10;83.90;;;;;;4968526;28;20286;-67
2022/07/26 05:15:04;;;;;;;3.87;0.40;;;16.10;83.80;;;;;;4968701;28;20320;-67
2022/07/26 05:17:30;;;;;;;2.53;0.43;;;16.10;83.60;;;;;;4970112;28;20047;-67
2022/07/26 05:19:56;;;;;;;4.53;0.87;;;16.20;83.60;;;;;;4967257;28;20290;-67
2022/07/26 05:22:21;;;;;;;4.50;0.80;;;16.20;83.40;;;;;;4966449;28;20551;-67
2022/07/26 05:24:47;;;;;;;5.47;0.60;;;16.30;83.10;;;;;;4977545;28;20038;-67
2022/07/26 05:27:13;;;;;;;2.63;0.30;;;16.30;82.90;;;;;;4977817;28;20073;-67
2022/07/26 05:29:39;;;;;;;4.13;0.30;;;16.30;82.60;;;;;;4951318;28;20526;-67
2022/07/26 05:32:05;;;;;;;3.03;0.20;;;16.30;82.70;;;;;;4959638;28;20072;-67
2022/07/26 05:34:31;;;;;;;3.03;0.57;;;16.40;82.40;;;;;;4953999;28;20517;-67
2022/07/26 05:36:56;;;;;;;1.50;0.30;;;16.40;81.20;;;;;;4968759;28;20296;-67
2022/07/26 05:39:22;;;;;;;2.63;0.50;;;16.30;81.30;;;;;;4951318;28;20049;-67
2022/07/26 05:41:48;;;;;;;2.87;0.30;;;16.30;80.30;;;;;;4956708;28;20600;-67
2022/07/26 05:44:14;;;;;;;4.20;0.33;;;16.30;80.60;;;;;;4968209;28;20341;-67
2022/07/26 05:46:40;;;;;;;5.87;0.30;;;16.30;80.60;;;;;;4968105;28;20078;-67
2022/07/26 05:49:06;;;;;;;6.10;0.50;;;16.40;80.40;;;;;;4968271;28;20034;-67
2022/07/26 05:51:32;;;;;;;5.30;0.70;;;16.50;80.50;;;;;;4965248;28;20038;-67
2022/07/26 05:53:58;;;;;;;3.87;0.60;;;16.50;79.70;;;;;;4961027;28;20703;-67
2022/07/26 05:56:24;;;;;;;3.77;0.33;;;16.50;79.40;;;;;;4961157;28;20282;-67
2022/07/26 05:58:50;;;;;;;2.67;0.37;;;16.50;79.30;;;;;;4964442;28;20310;-67
2022/07/26 06:01:16;;;;;;;4.73;0.53;;;16.50;78.40;;;;;;4962756;28;20289;-67
2022/07/26 06:03:42;;;;;;;4.87;0.40;;;16.50;77.90;;;;;;4965579;28;20487;-67
2022/07/26 06:06:08;;;;;;;3.90;0.30;;;16.60;77.70;;;;;;4960610;28;20043;-67
2022/07/26 06:08:35;;;;;;;3.20;0.37;;;16.70;77.30;;;;;;4965283;28;20712;-67
2022/07/26 06:11:01;;;;;;;5.60;0.40;;;16.70;77.40;;;;;;4963367;28;20038;-67
2022/07/26 06:13:26;;;;;;;5.60;0.67;;;16.80;77.20;;;;;;4966439;28;20278;-67
2022/07/26 06:15:52;;;;;;;2.97;0.50;;;16.90;77.10;;;;;;4935619;28;20038;-67
2022/07/26 06:18:18;;;;;;;1.87;0.20;;;17.00;77.00;;;;;;4965559;28;20074;-67
2022/07/26 06:20:46;;;;;;;5.30;0.50;;;17.00;77.00;;;;;;4963994;28;20042;-68
2022/07/26 06:23:12;;;;;;;5.67;0.67;;;17.00;77.00;;;;;;4972936;28;20583;-67
2022/07/26 06:25:39;;;;;;;7.00;0.60;;;16.90;77.00;;;;;;4966596;28;20738;-67
2022/07/26 06:28:07;;;;;;;6.57;1.10;;;16.90;77.10;;;;;;4975228;28;20278;-67
2022/07/26 06:30:34;;;;;;;4.80;0.50;;;16.80;77.60;;;;;;4968903;28;20650;-67
2022/07/26 06:32:59;;;;;;;4.33;0.50;;;16.80;78.20;;;;;;4969486;28;20289;-67
2022/07/26 06:35:29;;;;;;;4.63;0.40;;;16.80;78.50;;;;;;4955095;28;20287;-67
2022/07/26 06:37:56;;;;;;;7.93;1.07;;;16.80;78.50;;;;;;4969018;28;20422;-67
2022/07/26 06:40:21;;;;;;;5.83;0.70;;;16.90;78.00;;;;;;4968865;28;20318;-67
2022/07/26 06:42:47;;;;;;;3.40;0.30;;;17.00;77.70;;;;;;4967847;28;20783;-67
2022/07/26 06:45:13;;;;;;;3.03;0.40;;;17.00;77.60;;;;;;4968863;28;20034;-67
2022/07/26 06:47:39;;;;;;;7.93;0.50;;;17.10;77.00;;;;;;4962365;28;20057;-67
2022/07/26 06:50:05;;;;;;;3.40;0.30;;;17.30;76.80;;;;;;4952708;28;20054;-67
2022/07/26 06:52:33;;;;;;;5.30;0.50;;;17.40;76.80;;;;;;4954345;28;20057;-67
2022/07/26 06:55:00;;;;;;;7.43;0.50;;;17.60;76.00;;;;;;4968095;28;20295;-67
2022/07/26 06:57:26;;;;;;;2.37;0.20;;;17.80;75.60;;;;;;4984675;28;20305;-67
2022/07/26 06:59:51;;;;;;;9.17;0.87;;;18.00;74.10;;;;;;4965258;28;20293;-67
2022/07/26 07:02:17;;;;;;;2.07;0.10;;;18.20;72.20;;;;;;4951834;28;20402;-67
2022/07/26 07:04:43;;;;;;;3.90;0.30;;;18.30;70.50;;;;;;4967900;28;20088;-67
2022/07/26 07:07:09;;;;;;;6.97;1.10;;;18.30;69.70;;;;;;4969068;28;20034;-67
2022/07/26 07:09:35;;;;;;;12.10;1.77;;;18.10;71.00;;;;;;4966036;28;20043;-67
2022/07/26 07:12:05;;;;;;;3.87;0.60;;;17.70;72.30;;;;;;4967003;28;20521;-67
2022/07/26 07:14:31;;;;;;;7.30;1.27;;;17.30;73.70;;;;;;4968804;28;20645;-67
2022/07/26 07:16:57;;;;;;;3.47;0.70;;;17.10;74.60;;;;;;4952417;28;20281;-68
2022/07/26 07:19:24;;;;;;;10.10;1.07;;;17.00;75.10;;;;;;4951307;28;20293;-68
2022/07/26 07:21:50;;;;;;;9.87;1.10;;;17.00;75.10;;;;;;4950769;28;20049;-68
2022/07/26 07:24:16;;;;;;;7.83;1.10;;;17.10;74.90;;;;;;4967162;28;20717;-68
2022/07/26 07:26:42;;;;;;;6.13;0.67;;;17.10;74.30;;;;;;4965451;28;20308;-68
2022/07/26 07:29:13;;;;;;;4.03;0.60;;;17.20;73.90;;;;;;4967403;28;20297;-68
2022/07/26 07:31:40;;;;;;;9.57;0.63;;;17.40;72.90;;;;;;4965242;28;20078;-68
2022/07/26 07:34:05;;;;;;;6.60;0.93;;;17.60;72.80;;;;;;4966907;28;20281;-68
2022/07/26 07:36:31;;;;;;;2.43;0.30;;;17.90;71.40;;;;;;4949269;28;20292;-68
2022/07/26 07:38:57;;;;;;;3.83;0.30;;;18.10;70.80;;;;;;4951716;28;20569;-68
2022/07/26 07:41:22;;;;;;;4.37;0.40;;;18.40;68.90;;;;;;4966734;28;20121;-68
2022/07/26 07:43:48;;;;;;;5.90;1.43;;;18.70;69.30;;;;;;4960627;28;20513;-68
2022/07/26 07:46:14;;;;;;;5.50;0.50;;;18.90;67.70;;;;;;4960176;28;20137;-68
2022/07/26 07:48:40;;;;;;;4.53;0.60;;;18.90;67.10;;;;;;4949466;28;20575;-68
2022/07/26 07:51:07;;;;;;;7.43;1.03;;;18.90;67.70;;;;;;4945349;28;20034;-68
2022/07/26 07:53:33;;;;;;;6.47;0.90;;;18.90;66.30;;;;;;4961647;28;20375;-68
2022/07/26 07:55:59;;;;;;;7.13;1.00;;;18.80;66.60;;;;;;4964747;28;20296;-68
2022/07/26 07:58:25;;;;;;;5.80;0.80;;;18.80;66.70;;;;;;4965940;28;20097;-68
2022/07/26 08:00:51;;;;;;;5.20;0.57;;;18.90;66.70;;;;;;4945025;28;20475;-68
2022/07/26 08:03:17;;;;;;;5.37;0.50;;;19.00;66.70;;;;;;4956891;28;20301;-68
2022/07/26 08:05:42;;;;;;;8.73;0.70;;;19.00;66.30;;;;;;4964802;28;20045;-68
2022/07/26 08:08:08;;;;;;;4.70;0.80;;;18.90;67.00;;;;;;4966290;28;20047;-68
2022/07/26 08:10:34;;;;;;;8.70;0.70;;;18.60;68.70;;;;;;4949004;28;20046;-68
2022/07/26 08:13:00;;;;;;;7.50;0.90;;;18.40;70.80;;;;;;4960760;28;20042;-68
2022/07/26 08:15:26;;;;;;;6.57;0.70;;;18.10;71.70;;;;;;4969323;28;20046;-68
2022/07/26 08:17:52;;;;;;;4.33;0.80;;;18.00;72.60;;;;;;4969767;28;20054;-68
2022/07/26 08:20:19;;;;;;;10.80;1.27;;;18.10;72.80;;;;;;4955587;28;20404;-68
2022/07/26 08:22:44;;;;;;;4.83;0.80;;;18.20;73.20;;;;;;4946985;28;20286;-68
2022/07/26 08:25:11;;;;;;;5.03;0.80;;;18.40;72.20;;;;;;4969855;28;20281;-68
2022/07/26 08:27:36;;;;;;;8.57;1.30;;;18.40;70.10;;;;;;4969542;28;20053;-68
2022/07/26 08:30:04;;;;;;;5.50;0.60;;;18.50;69.70;;;;;;4951671;28;20281;-68
2022/07/26 08:32:30;;;;;;;7.80;1.00;;;18.70;68.80;;;;;;4967907;28;20066;-68
2022/07/26 08:34:55;;;;;;;5.17;0.83;;;18.80;67.70;;;;;;4968852;28;20805;-68
2022/07/26 08:37:21;;;;;;;4.60;0.60;;;18.90;65.80;;;;;;4967660;28;20070;-68
2022/07/26 08:39:47;;;;;;;4.23;1.00;;;19.10;65.70;;;;;;4959533;28;20089;-68
2022/07/26 08:42:18;;;;;;;11.17;1.63;;;19.20;65.30;;;;;;4968044;28;20077;-68
2022/07/26 08:44:45;;;;;;;7.57;1.23;;;18.90;67.70;;;;;;4954527;28;20838;-68
2022/07/26 08:47:16;;;;;;;13.03;2.30;;;18.50;70.10;;;;;;4968781;28;20300;-68
2022/07/26 08:49:42;;;;;;;12.30;1.60;;;18.20;72.10;;;;;;4968363;28;20337;-68
2022/07/26 08:52:10;;;;;;;5.83;1.43;;;18.10;72.30;;;;;;4969219;28;20296;-67
2022/07/26 08:54:40;;;;;;;6.43;1.23;;;18.00;72.30;;;;;;4953476;28;20273;-67
2022/07/26 08:57:06;;;;;;;7.80;1.20;;;18.10;72.30;;;;;;4970129;28;20277;-67
2022/07/26 08:59:32;;;;;;;10.53;1.57;;;18.00;70.70;;;;;;4967827;28;20289;-67
2022/07/26 09:02:04;;;;;;;10.30;1.27;;;18.10;71.10;;;;;;4970296;28;20174;-67
2022/07/26 09:04:34;;;;;;;7.30;0.97;;;18.30;70.30;;;;;;4970250;28;20144;-67
2022/07/26 09:07:09;;;;;;;8.17;1.23;;;18.40;69.60;;;;;;4969410;28;20538;-67
2022/07/26 09:09:54;;;;;;;13.55;2.10;;;18.70;69.00;;;;;;4965001;28;20641;-67
2022/07/26 09:12:22;;;;;;;11.00;1.60;;;19.00;69.00;;;;;;4969702;28;20573;-68
2022/07/26 09:14:48;;;;;;;11.57;1.87;;;19.40;68.20;;;;;;4969460;28;20278;-68
2022/07/26 09:17:17;;;;;;;9.30;1.13;;;19.50;66.10;;;;;;4931860;28;20286;-68
2022/07/26 09:19:43;;;;;;;6.47;1.30;;;19.50;65.20;;;;;;4966371;28;20275;-68
2022/07/26 09:22:14;;;;;;;8.00;1.20;;;19.40;64.70;;;;;;4966922;28;20520;-68
2022/07/26 09:24:44;;;;;;;6.97;1.30;;;19.20;64.40;;;;;;4953974;28;20038;-68
2022/07/26 09:27:13;;;;;;;7.20;0.93;;;19.10;64.60;;;;;;4961208;28;20293;-68
2022/07/26 09:29:47;;;;;;;10.70;1.37;;;19.00;65.00;;;;;;4950137;28;20290;-67
2022/07/26 09:32:18;;;;;;;11.18;1.00;;;19.10;63.90;;;;;;4967581;28;20440;-67
2022/07/26 09:35:11;;;;;;;5.80;1.00;;;19.30;64.20;;;;;;4964368;28;20073;-67
2022/07/26 09:37:39;;;;;;;7.97;1.30;;;19.40;62.30;;;;;;4984648;28;20125;-68
2022/07/26 09:40:11;;;;;;;9.90;1.43;;;19.50;62.90;;;;;;4952010;28;20309;-67
2022/07/26 09:42:56;;;;;;;5.93;1.10;;;19.50;62.10;;;;;;4950010;28;20292;-67
2022/07/26 09:45:22;;;;;;;8.50;1.05;;;19.60;61.00;;;;;;4965866;28;20278;-68
2022/07/26 09:47:48;;;;;;;9.90;1.30;;;19.50;59.20;;;;;;4966290;28;20868;-68
2022/07/26 09:50:20;;;;;;;5.57;1.00;;;19.50;59.70;;;;;;4965255;28;20050;-68
2022/07/26 09:53:02;;;;;;;5.73;0.80;;;19.60;59.10;;;;;;4985059;28;20130;-68
2022/07/26 09:55:29;;;;;;;6.60;0.90;;;19.80;57.10;;;;;;4964238;28;20068;-68
2022/07/26 09:57:55;;;;;;;13.90;1.90;;;19.90;56.30;;;;;;4953478;28;20077;-68
2022/07/26 10:00:21;;;;;;;6.33;0.97;;;20.00;56.90;;;;;;4971218;28;20525;-68
2022/07/26 10:02:46;;;;;;;4.63;0.50;;;20.10;57.60;;;;;;4966953;28;20131;-68
2022/07/26 10:05:12;;;;;;;5.03;1.17;;;20.20;56.70;;;;;;4932646;28;20051;-68
2022/07/26 10:07:38;;;;;;;5.43;0.70;;;20.20;56.00;;;;;;4966598;28;20046;-68
2022/07/26 10:10:13;;;;;;;7.73;0.63;;;20.10;55.10;;;;;;4949487;28;20124;-68
2022/07/26 10:12:42;;;;;;;5.27;0.77;;;20.20;55.50;;;;;;4952167;28;20073;-68
2022/07/26 10:15:41;;;;;;;8.60;1.10;;;20.30;54.20;;;;;;4950358;28;20487;-68
2022/07/26 10:18:09;;;;;;;6.17;0.57;;;20.60;54.80;;;;;;4958689;28;20030;-68
2022/07/26 10:20:50;;;;;;;5.67;0.70;;;20.80;53.20;;;;;;4953295;28;20080;-68
2022/07/26 10:23:33;;;;;;;6.43;0.80;;;21.10;53.20;;;;;;4962539;28;20446;-68
2022/07/26 10:26:00;;;;;;;2.37;0.47;;;21.30;52.10;;;;;;4963398;28;20113;-68
2022/07/26 10:28:28;;;;;;;5.33;0.70;;;21.40;52.60;;;;;;4956098;28;20062;-68
2022/07/26 10:31:19;;;;;;;3.67;0.40;;;21.60;52.20;;;;;;4954097;28;20074;-68
2022/07/26 10:33:48;;;;;;;4.97;1.03;;;21.60;50.40;;;;;;4945907;29;20054;-68
2022/07/26 10:36:30;;;;;;;6.00;0.70;;;21.50;51.40;;;;;;4939976;28;20039;-68
2022/07/26 10:39:01;;;;;;;6.97;0.80;;;21.50;51.00;;;;;;4945682;29;20035;-68
2022/07/26 10:41:39;;;;;;;5.63;1.20;;;21.60;51.30;;;;;;4943840;29;20423;-68
2022/07/26 10:44:16;;;;;;;4.73;0.73;;;21.70;51.00;;;;;;4934794;29;20035;-68
2022/07/26 10:47:14;;;;;;;5.70;0.60;;;21.80;49.70;;;;;;4929760;29;20399;-68
2022/07/26 10:49:43;;;;;;;5.03;0.67;;;21.70;49.50;;;;;;4941845;29;20063;-68
2022/07/26 10:52:15;;;;;;;2.90;0.63;;;21.70;50.50;;;;;;4940889;29;20051;-68
2022/07/26 10:54:56;;;;;;;5.10;1.00;;;21.50;50.60;;;;;;4938938;29;20420;-68
2022/07/26 10:57:31;;;;;;;3.90;0.60;;;21.50;48.90;;;;;;4938159;29;20051;-68
2022/07/26 10:59:58;;;;;;;4.82;0.65;;;21.40;51.30;;;;;;4939552;29;20051;-68
2022/07/26 11:02:31;;;;;;;2.60;0.50;;;21.50;50.80;;;;;;4930183;29;20581;-68
2022/07/26 11:05:13;;;;;;;5.00;0.63;;;21.50;50.30;;;;;;4931940;29;20443;-68
2022/07/26 11:07:52;;;;;;;3.00;1.00;;;21.40;49.60;;;;;;4946914;29;20047;-68
2022/07/26 11:10:28;;;;;;;4.37;0.93;;;21.40;48.90;;;;;;4947143;29;20714;-68
2022/07/26 11:13:18;;;;;;;5.47;0.70;;;21.30;50.40;;;;;;4946275;29;20369;-68
2022/07/26 11:15:47;;;;;;;4.87;0.60;;;21.60;51.10;;;;;;4960574;28;20054;-68
2022/07/26 11:18:17;;;;;;;3.53;0.50;;;21.80;49.50;;;;;;4945375;29;20038;-68
2022/07/26 11:20:45;;;;;;;5.60;0.60;;;22.00;49.20;;;;;;4931033;29;20483;-68
2022/07/26 11:23:29;;;;;;;7.07;0.90;;;22.20;49.80;;;;;;4941685;29;20038;-68
2022/07/26 11:26:15;;;;;;;5.50;0.70;;;22.20;48.50;;;;;;4943039;29;20054;-68
2022/07/26 11:28:59;;;;;;;4.10;0.50;;;22.10;49.20;;;;;;4958444;28;20055;-68
2022/07/26 11:31:43;;;;;;;6.13;0.50;;;22.10;49.70;;;;;;4939618;29;20579;-68
2022/07/26 11:34:20;;;;;;;3.97;0.40;;;21.90;47.60;;;;;;4943490;29;20197;-68
2022/07/26 11:36:47;;;;;;;4.70;1.13;;;21.80;49.50;;;;;;4947033;29;20043;-68
2022/07/26 11:39:24;;;;;;;4.50;0.60;;;21.60;49.20;;;;;;4944129;29;20053;-68
2022/07/26 11:41:55;;;;;;;5.37;0.90;;;21.40;49.90;;;;;;4945051;29;20048;-68
2022/07/26 11:44:22;;;;;;;4.23;0.50;;;21.60;50.90;;;;;;4943788;29;20039;-68
2022/07/26 11:46:49;;;;;;;3.67;0.80;;;21.80;50.00;;;;;;4943537;29;20487;-68
2022/07/26 11:49:20;;;;;;;5.73;0.50;;;21.90;48.70;;;;;;4945715;28;20035;-68
2022/07/26 11:51:57;;;;;;;5.77;0.80;;;21.90;48.40;;;;;;4948890;29;20164;-68
2022/07/26 11:54:26;;;;;;;4.30;0.50;;;21.90;48.70;;;;;;4946418;29;20368;-68
2022/07/26 11:57:00;;;;;;;6.77;0.90;;;21.60;49.20;;;;;;4948335;29;20504;-68
2022/07/26 11:59:31;;;;;;;3.05;0.47;;;21.60;49.40;;;;;;4945409;28;20039;-68
2022/07/26 12:01:58;;;;;;;3.83;0.40;;;21.70;49.20;;;;;;4947837;29;20046;-68
2022/07/26 12:04:26;;;;;;;3.70;0.50;;;22.00;48.90;;;;;;4946003;29;20521;-68
2022/07/26 12:06:53;;;;;;;4.10;0.37;;;22.20;48.60;;;;;;4946709;29;20129;-68
2022/07/26 12:09:34;;;;;;;3.43;0.77;;;22.30;47.70;;;;;;4942462;29;20451;-68
2022/07/26 12:12:18;;;;;;;2.13;0.50;;;22.30;47.70;;;;;;4945804;28;20039;-68
2022/07/26 12:14:58;;;;;;;4.72;0.50;;;22.40;48.40;;;;;;4960876;28;20134;-68
2022/07/26 12:17:24;;;;;;;4.20;0.63;;;22.40;47.70;;;;;;4944167;29;20043;-68
2022/07/26 12:19:49;;;;;;;6.00;0.77;;;22.10;49.00;;;;;;4929229;29;20058;-68
2022/07/26 12:22:20;;;;;;;9.93;0.90;;;22.10;49.10;;;;;;4943463;28;20098;-68
2022/07/26 12:24:56;;;;;;;5.23;0.40;;;21.90;49.10;;;;;;4942336;29;20039;-68
2022/07/26 12:27:32;;;;;;;2.47;0.63;;;21.80;48.90;;;;;;4942381;29;20076;-68
2022/07/26 12:30:01;;;;;;;4.43;0.60;;;21.90;49.00;;;;;;4944014;28;20058;-68
2022/07/26 12:32:30;;;;;;;2.67;0.60;;;22.10;48.50;;;;;;4945872;29;20044;-68
2022/07/26 12:35:00;;;;;;;2.23;0.70;;;22.00;48.40;;;;;;4947949;29;20046;-68
2022/07/26 12:37:31;;;;;;;6.53;0.73;;;22.10;48.80;;;;;;4948249;29;20555;-68
2022/07/26 12:40:05;;;;;;;4.30;0.60;;;22.00;48.80;;;;;;4943573;29;20062;-68
2022/07/26 12:42:34;;;;;;;6.03;0.60;;;22.10;48.80;;;;;;4942063;29;20048;-68
2022/07/26 12:45:00;;;;;;;3.40;0.47;;;22.40;49.00;;;;;;4932841;29;20040;-68
2022/07/26 12:47:26;;;;;;;9.73;1.13;;;22.70;48.60;;;;;;4947069;29;20043;-68
2022/07/26 12:49:52;;;;;;;2.77;0.50;;;22.90;46.60;;;;;;4949288;29;20412;-68
2022/07/26 12:52:21;;;;;;;4.77;0.57;;;22.70;46.40;;;;;;4944471;29;20085;-68